Time;durP1;ratioP1;P1;durP2;ratioP2;P2;SDS_P1;SDS_P2;PMS_P1;PMS_P2;Temp;Humidity;BMP_temperature;BMP_pressure;BME280_temperature;BME280_humidity;BME280_pressure;Samples;Min_cycle;Max_cycle;Signal;HPM_P1;HPM_P2
2022/10/16 00:00:35;;;;;;;2.67;2.47;;;;;;;;;;4977897;28;20635;-54
2022/10/16 00:03:02;;;;;;;2.90;2.70;;;;;;;;;;4983244;28;20191;-53
2022/10/16 00:05:28;;;;;;;3.23;2.50;;;;;;;;;;4981742;28;20187;-54
2022/10/16 00:07:54;;;;;;;2.57;2.37;;;;;;;;;;4988866;28;20244;-53
2022/10/16 00:10:20;;;;;;;2.70;2.50;;;;;;;;;;4985474;28;20179;-53
2022/10/16 00:12:46;;;;;;;3.00;2.37;;;;;;;;;;4984243;28;20294;-54
2022/10/16 00:15:13;;;;;;;3.63;2.60;;;;;;;;;;4974252;28;20181;-52
2022/10/16 00:17:39;;;;;;;2.57;2.37;;;;;;;;;;4970778;28;20726;-53
2022/10/16 00:20:06;;;;;;;2.60;2.40;;;;;;;;;;4985321;28;20623;-54
2022/10/16 00:22:33;;;;;;;3.00;2.20;;;;;;;;;;4971834;28;20658;-53
2022/10/16 00:24:59;;;;;;;2.83;2.50;;;;;;;;;;4959058;28;20188;-54
2022/10/16 00:27:25;;;;;;;2.53;2.33;;;;;;;;;;4981497;28;20283;-53
2022/10/16 00:29:57;;;;;;;2.70;2.50;;;;;;;;;;4978341;28;20231;-53
2022/10/16 00:32:23;;;;;;;2.80;2.60;;;;;;;;;;4963668;28;20247;-54
2022/10/16 00:34:49;;;;;;;2.67;2.47;;;;;;;;;;4984644;28;20180;-53
2022/10/16 00:37:15;;;;;;;2.90;2.30;;;;;;;;;;4991028;28;20187;-53
2022/10/16 00:39:41;;;;;;;2.53;2.33;;;;;;;;;;4954319;28;20193;-53
2022/10/16 00:42:10;;;;;;;2.90;2.47;;;;;;;;;;4980442;28;20187;-53
2022/10/16 00:44:42;;;;;;;2.70;2.50;;;;;;;;;;4979856;28;20211;-52
2022/10/16 00:47:10;;;;;;;2.67;2.47;;;;;;;;;;4962253;28;20203;-54
2022/10/16 00:49:37;;;;;;;4.10;3.27;;;;;;;;;;4968187;28;20202;-53
2022/10/16 00:52:03;;;;;;;2.80;2.60;;;;;;;;;;4964367;28;20511;-53
2022/10/16 00:54:30;;;;;;;3.00;2.60;;;;;;;;;;4978673;28;20186;-54
2022/10/16 00:56:59;;;;;;;2.83;2.63;;;;;;;;;;4966550;28;20245;-54
2022/10/16 00:59:28;;;;;;;4.37;3.10;;;;;;;;;;4983108;28;20234;-54
2022/10/16 01:01:54;;;;;;;2.70;2.50;;;;;;;;;;4976525;28;22482;-54
2022/10/16 01:04:21;;;;;;;3.20;2.90;;;;;;;;;;4984106;28;20516;-53
2022/10/16 01:07:07;;;;;;;3.30;2.90;;;;;;;;;;4966015;28;20231;-53
2022/10/16 01:09:37;;;;;;;3.40;3.10;;;;;;;;;;4980645;28;20183;-54
2022/10/16 01:12:09;;;;;;;3.17;2.77;;;;;;;;;;4960620;28;20183;-54
2022/10/16 01:14:53;;;;;;;4.23;2.77;;;;;;;;;;4953580;28;20195;-52
2022/10/16 01:17:22;;;;;;;3.87;3.03;;;;;;;;;;4977508;28;20265;-53
2022/10/16 01:19:54;;;;;;;3.17;2.87;;;;;;;;;;4967326;28;20190;-53
2022/10/16 01:22:44;;;;;;;3.53;2.93;;;;;;;;;;4968861;28;20198;-52
2022/10/16 01:25:15;;;;;;;2.97;2.70;;;;;;;;;;4986206;28;20297;-54
2022/10/16 01:27:43;;;;;;;4.33;2.93;;;;;;;;;;4983486;28;20206;-53
2022/10/16 01:30:26;;;;;;;4.33;4.03;;;;;;;;;;4961122;28;20183;-53
2022/10/16 01:32:52;;;;;;;3.90;2.97;;;;;;;;;;4984423;28;20715;-54
2022/10/16 01:35:27;;;;;;;4.10;3.17;;;;;;;;;;4992548;28;20179;-53
2022/10/16 01:38:16;;;;;;;3.73;3.27;;;;;;;;;;4984710;28;20214;-53
2022/10/16 01:40:44;;;;;;;3.17;2.87;;;;;;;;;;4972371;28;20190;-54
2022/10/16 01:43:16;;;;;;;3.43;3.13;;;;;;;;;;4973078;28;20664;-53
2022/10/16 01:45:42;;;;;;;4.23;3.83;;;;;;;;;;4976024;28;20192;-52
2022/10/16 01:48:11;;;;;;;4.03;3.03;;;;;;;;;;4983367;28;20733;-54
2022/10/16 01:50:39;;;;;;;4.63;3.50;;;;;;;;;;4986929;28;20277;-53
2022/10/16 01:53:06;;;;;;;3.53;3.23;;;;;;;;;;4985451;28;20313;-54
2022/10/16 01:55:36;;;;;;;4.57;4.17;;;;;;;;;;4987253;28;20179;-53
2022/10/16 01:58:03;;;;;;;4.03;3.47;;;;;;;;;;4963252;28;20264;-53
2022/10/16 02:00:29;;;;;;;3.67;3.20;;;;;;;;;;4975436;28;20187;-54
2022/10/16 02:02:56;;;;;;;4.60;3.30;;;;;;;;;;4986444;28;20183;-54
2022/10/16 02:05:38;;;;;;;4.20;3.80;;;;;;;;;;4966972;28;20284;-53
2022/10/16 02:08:04;;;;;;;4.23;2.87;;;;;;;;;;4952732;28;20572;-54
2022/10/16 02:10:30;;;;;;;4.60;2.73;;;;;;;;;;4951217;28;20298;-54
2022/10/16 02:13:05;;;;;;;3.00;2.70;;;;;;;;;;4962661;28;20187;-54
2022/10/16 02:15:31;;;;;;;2.80;2.60;;;;;;;;;;4951617;28;20637;-54
2022/10/16 02:17:58;;;;;;;3.30;2.87;;;;;;;;;;4947691;28;20204;-53
2022/10/16 02:20:26;;;;;;;2.70;2.50;;;;;;;;;;4947393;28;20192;-53
2022/10/16 02:22:53;;;;;;;3.30;3.00;;;;;;;;;;4967333;28;20278;-53
2022/10/16 02:25:22;;;;;;;2.93;2.73;;;;;;;;;;4961702;28;20191;-54
2022/10/16 02:27:49;;;;;;;2.97;2.53;;;;;;;;;;4966851;28;20218;-54
2022/10/16 02:30:20;;;;;;;3.27;2.43;;;;;;;;;;4967423;28;20184;-53
2022/10/16 02:32:48;;;;;;;2.73;2.50;;;;;;;;;;4949080;28;20280;-53
2022/10/16 02:35:16;;;;;;;2.60;2.40;;;;;;;;;;4965752;28;20244;-54
2022/10/16 02:37:43;;;;;;;3.03;2.23;;;;;;;;;;4952764;28;20242;-53
2022/10/16 02:40:09;;;;;;;2.43;2.20;;;;;;;;;;4965533;28;20540;-53
2022/10/16 02:42:36;;;;;;;3.00;2.70;;;;;;;;;;4964524;28;20183;-53
2022/10/16 02:45:03;;;;;;;3.00;2.70;;;;;;;;;;4966947;28;20194;-54
2022/10/16 02:47:30;;;;;;;2.93;2.60;;;;;;;;;;4967405;28;20216;-54
2022/10/16 02:49:56;;;;;;;2.87;2.27;;;;;;;;;;4967208;28;20187;-54
2022/10/16 02:52:22;;;;;;;3.30;2.80;;;;;;;;;;4962394;28;20208;-53
2022/10/16 02:54:48;;;;;;;2.63;2.43;;;;;;;;;;4962180;28;20204;-53
2022/10/16 02:57:14;;;;;;;3.33;2.47;;;;;;;;;;4966847;28;20635;-54
2022/10/16 02:59:41;;;;;;;2.40;2.20;;;;;;;;;;4966592;28;20207;-54
2022/10/16 03:02:07;;;;;;;2.63;2.43;;;;;;;;;;4961041;28;20195;-54
2022/10/16 03:04:33;;;;;;;2.50;2.30;;;;;;;;;;4964224;28;20196;-53
2022/10/16 03:06:59;;;;;;;2.30;2.13;;;;;;;;;;4967811;28;20239;-54
2022/10/16 03:09:25;;;;;;;2.07;1.97;;;;;;;;;;4979061;28;20198;-53
2022/10/16 03:11:52;;;;;;;3.60;2.40;;;;;;;;;;4983080;28;20547;-53
2022/10/16 03:14:18;;;;;;;2.47;2.27;;;;;;;;;;4989111;28;20190;-54
2022/10/16 03:16:44;;;;;;;9.00;8.50;;;;;;;;;;4989582;28;20222;-53
2022/10/16 03:19:10;;;;;;;2.50;2.30;;;;;;;;;;4985986;28;20800;-54
2022/10/16 03:21:36;;;;;;;2.47;2.23;;;;;;;;;;4981185;28;20278;-54
2022/10/16 03:24:02;;;;;;;2.40;2.17;;;;;;;;;;4957795;28;20195;-54
2022/10/16 03:26:28;;;;;;;2.30;2.10;;;;;;;;;;4975867;28;20539;-54
2022/10/16 03:28:54;;;;;;;2.50;2.23;;;;;;;;;;4987493;28;20226;-53
2022/10/16 03:31:21;;;;;;;3.40;2.87;;;;;;;;;;4988520;28;20207;-53
2022/10/16 03:33:47;;;;;;;2.37;2.17;;;;;;;;;;4965915;28;20190;-54
2022/10/16 03:36:13;;;;;;;2.93;1.90;;;;;;;;;;4965118;28;20186;-53
2022/10/16 03:38:39;;;;;;;2.17;2.00;;;;;;;;;;4981451;28;20534;-53
2022/10/16 03:41:07;;;;;;;2.13;1.97;;;;;;;;;;4988227;28;20187;-54
2022/10/16 03:43:33;;;;;;;2.33;2.13;;;;;;;;;;4979178;28;20186;-53
2022/10/16 03:45:59;;;;;;;2.10;2.00;;;;;;;;;;4968424;28;20190;-53
2022/10/16 03:48:25;;;;;;;2.47;2.23;;;;;;;;;;4982657;28;20294;-53
2022/10/16 03:50:51;;;;;;;2.20;1.80;;;;;;;;;;4982325;28;20204;-54
2022/10/16 03:53:18;;;;;;;4.63;2.07;;;;;;;;;;4967006;28;20234;-53
2022/10/16 03:55:44;;;;;;;3.07;2.40;;;;;;;;;;4965017;28;20185;-53
2022/10/16 03:58:11;;;;;;;1.90;1.80;;;;;;;;;;4978718;28;20459;-53
2022/10/16 04:00:44;;;;;;;2.90;2.70;;;;;;;;;;4986614;28;20183;-52
2022/10/16 04:03:11;;;;;;;3.43;3.23;;;;;;;;;;4979030;28;20198;-54
2022/10/16 04:05:38;;;;;;;3.20;2.10;;;;;;;;;;4978026;28;20191;-53
2022/10/16 04:08:04;;;;;;;2.37;2.07;;;;;;;;;;4985107;28;20244;-54
2022/10/16 04:10:30;;;;;;;2.80;2.00;;;;;;;;;;4971335;28;20187;-53
2022/10/16 04:12:57;;;;;;;2.00;1.90;;;;;;;;;;4979798;28;20190;-53
2022/10/16 04:15:26;;;;;;;2.20;2.00;;;;;;;;;;4981838;28;20204;-53
2022/10/16 04:17:52;;;;;;;1.70;1.60;;;;;;;;;;4968032;28;20205;-54
2022/10/16 04:20:18;;;;;;;2.00;1.90;;;;;;;;;;4985288;28;20186;-54
2022/10/16 04:22:45;;;;;;;1.80;1.60;;;;;;;;;;4983946;28;20195;-54
2022/10/16 04:25:18;;;;;;;3.60;3.40;;;;;;;;;;4973592;28;20183;-54
2022/10/16 04:27:44;;;;;;;1.90;1.77;;;;;;;;;;4966797;28;20242;-53
2022/10/16 04:30:10;;;;;;;3.10;2.10;;;;;;;;;;4979516;28;20194;-53
2022/10/16 04:32:36;;;;;;;1.90;1.80;;;;;;;;;;4964052;28;20198;-54
2022/10/16 04:35:02;;;;;;;1.77;1.40;;;;;;;;;;4968603;28;20183;-53
2022/10/16 04:37:29;;;;;;;2.07;1.90;;;;;;;;;;4966991;28;20705;-54
2022/10/16 04:39:55;;;;;;;1.77;1.50;;;;;;;;;;4984833;28;20203;-53
2022/10/16 04:42:21;;;;;;;1.50;1.40;;;;;;;;;;4963724;28;20183;-53
2022/10/16 04:44:47;;;;;;;2.00;1.77;;;;;;;;;;4983017;28;20248;-53
2022/10/16 04:47:14;;;;;;;1.80;1.70;;;;;;;;;;4988788;28;20222;-53
2022/10/16 04:49:40;;;;;;;1.77;1.67;;;;;;;;;;4978709;28;20746;-54
2022/10/16 04:52:06;;;;;;;2.27;2.17;;;;;;;;;;4980054;28;20217;-53
2022/10/16 04:54:32;;;;;;;1.70;1.60;;;;;;;;;;4978413;28;20574;-54
2022/10/16 04:56:58;;;;;;;1.80;1.70;;;;;;;;;;4986077;28;20191;-54
2022/10/16 04:59:25;;;;;;;2.80;1.67;;;;;;;;;;4970228;28;20183;-53
2022/10/16 05:01:51;;;;;;;1.90;1.60;;;;;;;;;;4984543;28;20198;-53
2022/10/16 05:04:24;;;;;;;1.73;1.63;;;;;;;;;;4980987;28;20649;-53
2022/10/16 05:06:50;;;;;;;1.87;1.60;;;;;;;;;;4976797;28;20219;-54
2022/10/16 05:09:16;;;;;;;2.87;1.60;;;;;;;;;;4978638;28;20489;-54
2022/10/16 05:11:42;;;;;;;1.87;1.70;;;;;;;;;;4981011;28;20206;-54
2022/10/16 05:14:08;;;;;;;2.13;1.90;;;;;;;;;;4984933;28;20242;-54
2022/10/16 05:16:34;;;;;;;1.93;1.73;;;;;;;;;;4966085;28;20181;-54
2022/10/16 05:19:00;;;;;;;1.53;1.43;;;;;;;;;;4971594;28;20189;-53
2022/10/16 05:21:26;;;;;;;2.07;1.87;;;;;;;;;;4964013;28;20322;-53
2022/10/16 05:23:54;;;;;;;3.73;1.87;;;;;;;;;;4958591;28;20179;-54
2022/10/16 05:26:20;;;;;;;1.90;1.80;;;;;;;;;;4990763;28;20556;-53
2022/10/16 05:28:46;;;;;;;2.37;1.90;;;;;;;;;;4964716;28;20303;-53
2022/10/16 05:31:12;;;;;;;1.87;1.77;;;;;;;;;;4978734;28;20181;-54
2022/10/16 05:33:38;;;;;;;1.60;1.50;;;;;;;;;;4976902;28;20706;-54
2022/10/16 05:36:07;;;;;;;1.90;1.80;;;;;;;;;;4976125;28;20174;-53
2022/10/16 05:38:33;;;;;;;2.10;1.90;;;;;;;;;;4984720;28;20194;-54
2022/10/16 05:40:59;;;;;;;1.77;1.67;;;;;;;;;;4987498;28;20186;-54
2022/10/16 05:43:25;;;;;;;2.27;2.07;;;;;;;;;;4983666;28;20662;-53
2022/10/16 05:45:55;;;;;;;3.83;1.90;;;;;;;;;;4972155;28;20187;-53
2022/10/16 05:48:22;;;;;;;2.00;1.83;;;;;;;;;;4972778;28;20671;-53
2022/10/16 05:50:48;;;;;;;3.57;1.80;;;;;;;;;;4982383;28;20611;-52
2022/10/16 05:53:14;;;;;;;1.97;1.77;;;;;;;;;;4965144;28;20196;-53
2022/10/16 05:55:40;;;;;;;5.33;1.90;;;;;;;;;;4966373;28;20645;-54
2022/10/16 05:58:06;;;;;;;2.40;1.87;;;;;;;;;;4984268;28;20564;-52
2022/10/16 06:00:32;;;;;;;1.80;1.60;;;;;;;;;;4966866;28;20274;-54
2022/10/16 06:02:58;;;;;;;1.80;1.70;;;;;;;;;;4985395;28;20197;-53
2022/10/16 06:05:24;;;;;;;1.80;1.70;;;;;;;;;;4965841;28;20186;-53
2022/10/16 06:07:50;;;;;;;1.87;1.77;;;;;;;;;;4975525;28;20236;-53
2022/10/16 06:10:17;;;;;;;2.10;1.90;;;;;;;;;;4968704;28;20200;-52
2022/10/16 06:12:43;;;;;;;1.93;1.80;;;;;;;;;;4962408;28;20180;-52
2022/10/16 06:15:09;;;;;;;2.00;1.73;;;;;;;;;;4971974;28;20712;-53
2022/10/16 06:17:35;;;;;;;2.47;2.20;;;;;;;;;;4951058;28;20196;-53
2022/10/16 06:20:08;;;;;;;2.93;2.33;;;;;;;;;;4966046;28;20627;-52
2022/10/16 06:22:34;;;;;;;2.00;1.80;;;;;;;;;;4965938;28;20248;-53
2022/10/16 06:25:00;;;;;;;1.90;1.80;;;;;;;;;;4964435;28;20176;-53
2022/10/16 06:27:26;;;;;;;2.70;2.00;;;;;;;;;;4963124;28;20204;-53
2022/10/16 06:29:52;;;;;;;2.80;2.00;;;;;;;;;;4972484;28;20220;-53
2022/10/16 06:32:18;;;;;;;1.67;1.57;;;;;;;;;;4965264;28;20188;-53
2022/10/16 06:34:44;;;;;;;1.90;1.80;;;;;;;;;;4966464;28;20176;-53
2022/10/16 06:37:11;;;;;;;2.10;1.90;;;;;;;;;;4949667;28;20275;-53
2022/10/16 06:39:37;;;;;;;1.97;1.87;;;;;;;;;;4971778;28;20699;-54
2022/10/16 06:42:03;;;;;;;2.50;1.70;;;;;;;;;;4964851;28;20309;-53
2022/10/16 06:44:29;;;;;;;2.27;1.80;;;;;;;;;;4962254;28;20191;-52
2022/10/16 06:46:55;;;;;;;2.00;1.80;;;;;;;;;;4960295;28;20187;-53
2022/10/16 06:49:22;;;;;;;2.27;2.07;;;;;;;;;;4963713;28;20531;-53
2022/10/16 06:51:48;;;;;;;2.10;1.90;;;;;;;;;;4962164;28;20211;-54
2022/10/16 06:54:16;;;;;;;2.43;1.93;;;;;;;;;;4957527;28;20191;-53
2022/10/16 06:56:42;;;;;;;5.17;2.17;;;;;;;;;;4946361;28;20258;-52
2022/10/16 06:59:08;;;;;;;1.67;1.57;;;;;;;;;;4951604;28;20586;-53
2022/10/16 07:01:34;;;;;;;2.10;1.50;;;;;;;;;;4965391;28;20207;-53
2022/10/16 07:04:02;;;;;;;1.80;1.70;;;;;;;;;;4964336;28;20260;-53
2022/10/16 07:06:30;;;;;;;2.07;1.87;;;;;;;;;;4965404;28;20207;-53
2022/10/16 07:08:56;;;;;;;2.57;1.90;;;;;;;;;;4973048;28;20240;-52
2022/10/16 07:11:23;;;;;;;1.70;1.60;;;;;;;;;;4969318;28;20655;-53
2022/10/16 07:13:50;;;;;;;1.73;1.40;;;;;;;;;;4959205;28;20239;-52
2022/10/16 07:16:21;;;;;;;3.40;2.27;;;;;;;;;;4941118;28;20266;-53
2022/10/16 07:18:48;;;;;;;1.97;1.77;;;;;;;;;;4944147;28;20382;-52
2022/10/16 07:21:22;;;;;;;2.00;1.90;;;;;;;;;;4960341;28;20208;-53
2022/10/16 07:23:55;;;;;;;1.87;1.77;;;;;;;;;;4955437;28;20688;-53
2022/10/16 07:26:21;;;;;;;2.47;2.20;;;;;;;;;;4969750;28;20187;-53
2022/10/16 07:28:48;;;;;;;2.47;2.00;;;;;;;;;;4958944;28;20603;-53
2022/10/16 07:31:15;;;;;;;1.80;1.70;;;;;;;;;;4940677;28;20789;-54
2022/10/16 07:33:44;;;;;;;2.13;1.93;;;;;;;;;;4961372;28;20192;-54
2022/10/16 07:36:10;;;;;;;1.80;1.70;;;;;;;;;;4942307;28;20188;-54
2022/10/16 07:38:36;;;;;;;2.37;2.00;;;;;;;;;;4962316;28;20180;-53
2022/10/16 07:41:10;;;;;;;2.67;1.80;;;;;;;;;;4962560;28;20188;-52
2022/10/16 07:43:36;;;;;;;2.50;2.10;;;;;;;;;;4937678;28;20187;-52
2022/10/16 07:46:03;;;;;;;3.57;1.70;;;;;;;;;;4946573;28;20198;-52
2022/10/16 07:48:30;;;;;;;2.37;2.13;;;;;;;;;;4961789;28;20290;-54
2022/10/16 07:50:59;;;;;;;2.37;2.10;;;;;;;;;;4961599;28;20948;-53
2022/10/16 07:53:26;;;;;;;2.33;2.13;;;;;;;;;;4967938;28;20542;-53
2022/10/16 07:55:52;;;;;;;4.00;2.40;;;;;;;;;;4944599;28;20184;-52
2022/10/16 07:58:18;;;;;;;2.87;2.20;;;;;;;;;;4963521;28;20184;-52
2022/10/16 08:00:44;;;;;;;2.90;2.10;;;;;;;;;;4944602;28;20597;-52
2022/10/16 08:03:10;;;;;;;2.73;2.53;;;;;;;;;;4962381;28;20662;-52
2022/10/16 08:05:37;;;;;;;2.10;2.00;;;;;;;;;;4963618;28;20535;-52
2022/10/16 08:08:03;;;;;;;2.87;2.30;;;;;;;;;;4955643;28;20239;-51
2022/10/16 08:10:31;;;;;;;2.93;2.10;;;;;;;;;;4966501;28;20222;-52
2022/10/16 08:12:58;;;;;;;2.30;2.10;;;;;;;;;;4951777;28;20195;-52
2022/10/16 08:15:24;;;;;;;2.47;2.10;;;;;;;;;;4965646;28;20212;-52
2022/10/16 08:18:01;;;;;;;2.70;2.00;;;;;;;;;;4964899;28;20191;-52
2022/10/16 08:20:28;;;;;;;2.10;1.93;;;;;;;;;;4957976;28;20180;-53
2022/10/16 08:22:54;;;;;;;3.13;2.00;;;;;;;;;;4964802;28;20183;-53
2022/10/16 08:25:21;;;;;;;2.60;2.20;;;;;;;;;;4977716;28;20278;-54
2022/10/16 08:27:48;;;;;;;3.37;2.13;;;;;;;;;;4962929;28;20206;-52
2022/10/16 08:30:14;;;;;;;2.53;2.30;;;;;;;;;;4963584;28;20207;-52
2022/10/16 08:32:41;;;;;;;2.63;2.10;;;;;;;;;;4945783;28;20180;-52
2022/10/16 08:35:09;;;;;;;2.17;2.07;;;;;;;;;;4960622;28;20183;-50
2022/10/16 08:37:35;;;;;;;3.67;2.30;;;;;;;;;;4956772;28;20224;-51
2022/10/16 08:40:01;;;;;;;2.33;2.03;;;;;;;;;;4962959;28;20735;-53
2022/10/16 08:42:46;;;;;;;4.03;2.07;;;;;;;;;;4958163;28;20482;-53
2022/10/16 08:45:19;;;;;;;2.40;2.17;;;;;;;;;;4969200;28;20184;-54
2022/10/16 08:47:45;;;;;;;2.57;1.80;;;;;;;;;;4974082;28;20211;-52
2022/10/16 08:50:13;;;;;;;2.43;2.23;;;;;;;;;;4965301;28;20202;-54
2022/10/16 08:52:41;;;;;;;2.83;1.80;;;;;;;;;;4951307;28;20601;-52
2022/10/16 08:55:07;;;;;;;2.10;1.90;;;;;;;;;;4950543;28;20213;-53
2022/10/16 08:57:36;;;;;;;3.23;1.90;;;;;;;;;;4961425;28;20279;-53
2022/10/16 09:00:12;;;;;;;4.27;2.13;;;;;;;;;;4964622;28;20211;-52
2022/10/16 09:02:41;;;;;;;3.17;2.03;;;;;;;;;;4962724;28;20269;-52
2022/10/16 09:05:26;;;;;;;2.70;1.80;;;;;;;;;;4949217;28;20196;-52
2022/10/16 09:08:04;;;;;;;1.83;1.70;;;;;;;;;;4961418;28;20228;-52
2022/10/16 09:10:37;;;;;;;2.47;2.20;;;;;;;;;;4953710;28;20307;-53
2022/10/16 09:13:10;;;;;;;2.20;1.93;;;;;;;;;;4965060;28;20536;-54
2022/10/16 09:15:55;;;;;;;2.10;1.77;;;;;;;;;;4964103;28;20724;-53
2022/10/16 09:18:36;;;;;;;2.10;1.90;;;;;;;;;;4957829;28;20209;-53
2022/10/16 09:21:06;;;;;;;3.20;1.80;;;;;;;;;;4962436;28;20191;-52
2022/10/16 09:23:35;;;;;;;5.27;3.07;;;;;;;;;;4970231;28;20314;-53
2022/10/16 09:26:02;;;;;;;2.30;1.60;;;;;;;;;;4966487;28;20278;-53
2022/10/16 09:28:28;;;;;;;2.27;2.00;;;;;;;;;;4964987;28;20212;-54
2022/10/16 09:30:54;;;;;;;3.53;1.90;;;;;;;;;;4945336;28;20595;-53
2022/10/16 09:33:23;;;;;;;3.70;1.73;;;;;;;;;;4963925;28;20189;-53
2022/10/16 09:35:54;;;;;;;2.23;1.80;;;;;;;;;;4959507;28;20295;-54
2022/10/16 09:38:24;;;;;;;3.87;1.80;;;;;;;;;;4968017;28;20641;-53
2022/10/16 09:40:51;;;;;;;1.67;1.57;;;;;;;;;;4965904;28;20202;-53
2022/10/16 09:43:22;;;;;;;4.10;2.10;;;;;;;;;;4967151;28;20191;-54
2022/10/16 09:46:05;;;;;;;2.63;2.17;;;;;;;;;;4955538;28;20187;-54
2022/10/16 09:48:36;;;;;;;3.60;2.07;;;;;;;;;;4963173;28;21078;-53
2022/10/16 09:51:03;;;;;;;2.03;1.43;;;;;;;;;;4976118;28;20944;-53
2022/10/16 09:53:40;;;;;;;5.63;2.03;;;;;;;;;;4968167;28;20523;-53
2022/10/16 09:56:06;;;;;;;4.10;2.13;;;;;;;;;;4947815;28;20210;-53
2022/10/16 09:58:33;;;;;;;2.30;1.80;;;;;;;;;;4969573;28;20187;-50
2022/10/16 10:00:59;;;;;;;2.37;1.87;;;;;;;;;;4941035;28;20283;-51
2022/10/16 10:03:28;;;;;;;3.15;1.90;;;;;;;;;;4963433;28;20435;-50
2022/10/16 10:05:55;;;;;;;3.13;1.83;;;;;;;;;;4966316;28;20184;-52
2022/10/16 10:08:21;;;;;;;3.30;1.67;;;;;;;;;;4973753;28;20667;-52
2022/10/16 10:10:49;;;;;;;2.20;2.10;;;;;;;;;;4984912;28;20917;-52
2022/10/16 10:13:26;;;;;;;2.43;1.80;;;;;;;;;;4982013;28;20566;-52
2022/10/16 10:15:53;;;;;;;3.00;2.13;;;;;;;;;;4979869;28;20183;-52
2022/10/16 10:18:21;;;;;;;3.50;1.57;;;;;;;;;;4982608;28;20234;-52
2022/10/16 10:20:57;;;;;;;3.60;1.80;;;;;;;;;;4982948;28;20504;-54
2022/10/16 10:23:25;;;;;;;3.50;1.90;;;;;;;;;;4979379;28;20238;-52
2022/10/16 10:26:07;;;;;;;2.40;1.83;;;;;;;;;;4980768;28;20213;-51
2022/10/16 10:28:42;;;;;;;4.10;1.87;;;;;;;;;;4980714;28;20330;-52
2022/10/16 10:31:26;;;;;;;2.00;1.80;;;;;;;;;;4980724;28;20609;-52
2022/10/16 10:34:11;;;;;;;3.93;1.83;;;;;;;;;;4965628;28;20179;-52
2022/10/16 10:36:38;;;;;;;1.90;1.57;;;;;;;;;;4979257;28;20191;-53
2022/10/16 10:39:08;;;;;;;3.57;2.07;;;;;;;;;;4987912;28;20195;-53
2022/10/16 10:41:41;;;;;;;5.13;2.00;;;;;;;;;;4983923;28;20186;-51
2022/10/16 10:44:07;;;;;;;3.33;1.80;;;;;;;;;;4980536;28;20710;-52
2022/10/16 10:46:41;;;;;;;3.17;1.97;;;;;;;;;;4983081;28;20207;-53
2022/10/16 10:49:28;;;;;;;1.90;1.80;;;;;;;;;;4967786;28;20496;-52
2022/10/16 10:51:56;;;;;;;1.50;1.40;;;;;;;;;;4948695;28;20619;-54
2022/10/16 10:54:27;;;;;;;2.60;1.70;;;;;;;;;;4984584;28;20194;-51
2022/10/16 10:57:02;;;;;;;3.87;1.90;;;;;;;;;;4989487;28;20179;-52
2022/10/16 10:59:37;;;;;;;2.47;1.70;;;;;;;;;;4982573;28;20183;-51
2022/10/16 11:02:29;;;;;;;2.80;1.80;;;;;;;;;;4989188;28;20206;-51
2022/10/16 11:05:11;;;;;;;2.10;2.00;;;;;;;;;;4978725;28;20207;-52
2022/10/16 11:07:42;;;;;;;2.77;1.80;;;;;;;;;;4984199;28;20238;-52
2022/10/16 11:10:22;;;;;;;2.80;1.80;;;;;;;;;;4985772;28;20598;-52
2022/10/16 11:12:52;;;;;;;4.10;1.93;;;;;;;;;;4967842;28;20214;-53
2022/10/16 11:15:23;;;;;;;2.77;1.80;;;;;;;;;;4983702;28;20564;-52
2022/10/16 11:17:54;;;;;;;3.67;3.17;;;;;;;;;;4985888;28;20183;-52
2022/10/16 11:20:25;;;;;;;2.43;1.80;;;;;;;;;;4982207;28;20191;-51
2022/10/16 11:22:53;;;;;;;2.23;1.77;;;;;;;;;;4984214;28;20667;-53
2022/10/16 11:25:23;;;;;;;1.67;1.57;;;;;;;;;;4986990;28;20183;-53
2022/10/16 11:27:55;;;;;;;4.17;2.40;;;;;;;;;;4977996;28;20208;-52
2022/10/16 11:30:21;;;;;;;6.20;2.30;;;;;;;;;;4983268;28;20171;-53
2022/10/16 11:33:05;;;;;;;2.33;1.80;;;;;;;;;;4989146;28;20274;-53
2022/10/16 11:35:37;;;;;;;3.10;1.77;;;;;;;;;;4982492;28;20259;-53
2022/10/16 11:38:04;;;;;;;6.07;2.10;;;;;;;;;;4978483;28;20183;-52
2022/10/16 11:40:34;;;;;;;1.90;1.70;;;;;;;;;;4984479;28;20246;-52
2022/10/16 11:43:33;;;;;;;3.33;1.90;;;;;;;;;;4985002;28;20247;-53
2022/10/16 11:46:02;;;;;;;1.80;1.70;;;;;;;;;;4955044;28;20205;-53
2022/10/16 11:48:34;;;;;;;1.63;1.53;;;;;;;;;;4982734;28;20584;-52
2022/10/16 11:51:08;;;;;;;5.80;1.70;;;;;;;;;;4984286;28;20214;-52
2022/10/16 11:54:00;;;;;;;2.40;1.67;;;;;;;;;;4969416;28;20183;-52
2022/10/16 11:56:27;;;;;;;2.43;1.77;;;;;;;;;;4978429;28;20654;-53
2022/10/16 11:59:01;;;;;;;3.50;2.17;;;;;;;;;;4980763;28;20247;-52
2022/10/16 12:01:57;;;;;;;4.23;2.10;;;;;;;;;;4980686;28;20179;-53
2022/10/16 12:04:27;;;;;;;4.50;2.70;;;;;;;;;;4896262;28;20776;-53
2022/10/16 12:07:00;;;;;;;2.20;1.97;;;;;;;;;;4962818;28;20294;-52
2022/10/16 12:09:27;;;;;;;6.10;1.97;;;;;;;;;;4949302;28;20574;-52
2022/10/16 12:11:53;;;;;;;2.13;1.90;;;;;;;;;;4949017;28;20321;-52
2022/10/16 12:14:21;;;;;;;2.63;1.70;;;;;;;;;;4962684;28;20203;-52
2022/10/16 12:16:58;;;;;;;3.87;2.07;;;;;;;;;;4959663;28;20646;-52
2022/10/16 12:19:26;;;;;;;2.37;1.83;;;;;;;;;;4960686;28;20175;-53
2022/10/16 12:22:01;;;;;;;2.30;2.00;;;;;;;;;;4958491;28;20183;-53
2022/10/16 12:24:33;;;;;;;4.10;1.80;;;;;;;;;;4960892;28;20518;-53
2022/10/16 12:26:59;;;;;;;3.10;1.70;;;;;;;;;;4961616;28;20198;-52
2022/10/16 12:29:32;;;;;;;2.90;1.97;;;;;;;;;;4958075;28;20194;-52
2022/10/16 12:31:59;;;;;;;2.57;1.77;;;;;;;;;;4954199;28;20191;-52
2022/10/16 12:34:25;;;;;;;3.50;1.83;;;;;;;;;;4936583;28;20186;-53
2022/10/16 12:36:51;;;;;;;2.30;2.10;;;;;;;;;;4962450;28;20182;-53
2022/10/16 12:39:36;;;;;;;1.60;1.50;;;;;;;;;;4945695;28;20649;-52
2022/10/16 12:42:19;;;;;;;2.90;1.83;;;;;;;;;;4964258;28;20189;-53
2022/10/16 12:44:45;;;;;;;2.47;1.87;;;;;;;;;;4959107;28;20187;-52
2022/10/16 12:47:30;;;;;;;2.00;1.90;;;;;;;;;;4956856;28;20295;-52
2022/10/16 12:49:57;;;;;;;4.20;1.80;;;;;;;;;;4960522;28;20596;-52
2022/10/16 12:52:25;;;;;;;3.17;1.97;;;;;;;;;;4946447;28;20782;-52
2022/10/16 12:54:51;;;;;;;3.78;2.00;;;;;;;;;;4963014;28;20443;-52
2022/10/16 12:57:17;;;;;;;2.80;1.80;;;;;;;;;;4964286;28;20722;-52
2022/10/16 12:59:47;;;;;;;2.37;2.17;;;;;;;;;;4944590;28;20389;-51
2022/10/16 13:02:29;;;;;;;4.87;2.50;;;;;;;;;;4960069;28;20192;-52
2022/10/16 13:04:55;;;;;;;2.07;1.80;;;;;;;;;;4958859;28;20192;-52
2022/10/16 13:10:28;;;;;;;1.70;1.60;;;;;;;;;;4784096;27;7090941;-52
2022/10/16 13:13:10;;;;;;;3.23;2.00;;;;;;;;;;5031563;28;20186;-52
2022/10/16 13:15:42;;;;;;;1.80;1.70;;;;;;;;;;5036734;28;20282;-52
2022/10/16 13:18:16;;;;;;;2.20;2.00;;;;;;;;;;5057884;28;20182;-52
2022/10/16 13:20:52;;;;;;;4.57;1.63;;;;;;;;;;5048153;28;20181;-51
2022/10/16 13:23:25;;;;;;;2.27;1.90;;;;;;;;;;5057492;28;20728;-52
2022/10/16 13:26:04;;;;;;;4.40;2.07;;;;;;;;;;5052014;28;20163;-52
2022/10/16 13:28:32;;;;;;;2.43;1.90;;;;;;;;;;5050146;28;20221;-52
2022/10/16 13:31:00;;;;;;;5.33;2.20;;;;;;;;;;5051059;28;20419;-52
2022/10/16 13:33:30;;;;;;;9.70;1.97;;;;;;;;;;5035948;28;20806;-51
2022/10/16 13:35:56;;;;;;;1.97;1.63;;;;;;;;;;5037159;28;20181;-51
2022/10/16 13:38:27;;;;;;;3.77;2.13;;;;;;;;;;5051734;28;20176;-51
2022/10/16 13:40:58;;;;;;;2.00;1.80;;;;;;;;;;5032750;28;20186;-51
2022/10/16 13:43:26;;;;;;;2.70;1.80;;;;;;;;;;5049615;28;20264;-51
2022/10/16 13:46:03;;;;;;;2.17;1.40;;;;;;;;;;5050072;28;20481;-51
2022/10/16 13:48:31;;;;;;;5.47;2.53;;;;;;;;;;5049258;28;20229;-51
2022/10/16 13:51:03;;;;;;;2.43;2.00;;;;;;;;;;5032958;28;20255;-51
2022/10/16 13:53:36;;;;;;;5.10;2.10;;;;;;;;;;5034070;28;20310;-50
2022/10/16 13:56:06;;;;;;;5.00;1.90;;;;;;;;;;5035410;28;20207;-51
2022/10/16 13:58:33;;;;;;;4.47;2.30;;;;;;;;;;5019386;28;20181;-50
2022/10/16 14:01:01;;;;;;;2.47;1.70;;;;;;;;;;5030730;28;20556;-50
2022/10/16 14:03:28;;;;;;;1.80;1.43;;;;;;;;;;5034065;28;20691;-50
2022/10/16 14:05:59;;;;;;;1.60;1.50;;;;;;;;;;5013071;28;20543;-50
2022/10/16 14:08:26;;;;;;;1.47;1.37;;;;;;;;;;5013569;28;20250;-50
2022/10/16 14:10:57;;;;;;;2.87;1.53;;;;;;;;;;4993176;28;20183;-51
2022/10/16 14:13:48;;;;;;;1.67;1.57;;;;;;;;;;4989558;28;20190;-51
2022/10/16 14:16:19;;;;;;;1.73;1.63;;;;;;;;;;4973871;28;20191;-51
2022/10/16 14:18:47;;;;;;;1.90;1.53;;;;;;;;;;4976865;28;20547;-51
2022/10/16 14:21:14;;;;;;;3.37;3.07;;;;;;;;;;4967973;28;20194;-50
2022/10/16 14:23:41;;;;;;;2.20;1.70;;;;;;;;;;4976256;28;20681;-50
2022/10/16 14:26:13;;;;;;;1.60;1.50;;;;;;;;;;4982196;28;20483;-51
2022/10/16 14:28:42;;;;;;;3.00;1.80;;;;;;;;;;4980082;28;20871;-53
2022/10/16 14:41:56;;;;;;;1.97;1.77;;;;;;;;;;4936763;28;20286;-49
2022/10/16 14:49:54;;;;;;;1.90;1.70;;;;;;;;;;5452895;22;20648;-88
2022/10/16 14:52:21;;;;;;;4.87;1.90;;;;;;;;;;4977817;28;20215;-85
2022/10/16 14:54:50;;;;;;;2.50;1.83;;;;;;;;;;4992598;28;20183;-86
2022/10/16 14:57:18;;;;;;;2.03;1.80;;;;;;;;;;5007076;28;20197;-87
2022/10/16 14:59:44;;;;;;;1.73;1.60;;;;;;;;;;4989632;28;20187;-88
2022/10/16 15:02:17;;;;;;;2.60;1.80;;;;;;;;;;4991122;28;20187;-87
2022/10/16 15:04:43;;;;;;;3.00;2.00;;;;;;;;;;5257743;22;21061;-54
2022/10/16 15:07:09;;;;;;;1.73;1.63;;;;;;;;;;4963594;28;20214;-55
2022/10/16 15:09:35;;;;;;;3.97;2.93;;;;;;;;;;4984295;28;20199;-56
2022/10/16 15:12:01;;;;;;;6.63;2.33;;;;;;;;;;4977934;28;20198;-58
2022/10/16 15:14:27;;;;;;;3.03;2.10;;;;;;;;;;4980972;28;20291;-55